Lucknow, South Carolina
Current Conditions -  °F | °C
As of 6:35 AM on Sunday 23 Nov 2014 (Local Time) from KCDN Reporting Station
Moderate Rain Moderate Rain  
Wind Chill: 46°   Ceiling: 4000
Heat Index: 46°   Visibility: 2.5mi
Dew Point: 46°   Wind: 3mph
Humidity: 100%   Direction: 30°NNE
Pressure: 30.24"   Gusts: NA
Location:  34.2324°N, 80.2824°W
Report Text: KCDN 231135Z AUTO 03003KT 2 1/2SM RA FEW002 SCT034 BKN040 08/08 A3024 RMK AO2 P0005 TSNO
Loading
Personal Weather Stations






























Interactive Weather Map New forecast layout! Learn more

10-Day Weather Forecast

Advertisements
Track Severe Weather on mobile